createdAt,value
2022-10-10T00:01:35.272Z,88.14
2022-10-10T00:04:05.990Z,90.85
2022-10-10T00:06:34.499Z,92.66
2022-10-10T00:09:05.072Z,93.55
2022-10-10T00:11:34.648Z,93.52
2022-10-10T00:14:03.062Z,93.23
2022-10-10T00:16:31.657Z,93.49
2022-10-10T00:18:59.664Z,93.92
2022-10-10T00:21:29.401Z,94.42
2022-10-10T00:23:57.687Z,93.85
2022-10-10T00:26:25.869Z,94.28
2022-10-10T00:28:55.291Z,94.22
2022-10-10T00:31:24.955Z,93.68
2022-10-10T00:33:53.219Z,93.69
2022-10-10T00:36:21.645Z,94.01
2022-10-10T00:38:51.211Z,95.13
2022-10-10T00:41:19.381Z,95.94
2022-10-10T00:44:03.260Z,96.16
2022-10-10T00:46:31.255Z,95.94
2022-10-10T00:48:59.926Z,94.58
2022-10-10T00:51:28.189Z,92.43
2022-10-10T00:54:03.331Z,91.24
2022-10-10T00:56:37.328Z,90.12
2022-10-10T00:59:11.299Z,90.61
2022-10-10T01:01:40.910Z,91.14
2022-10-10T01:04:31.695Z,91.56
2022-10-10T01:07:02.908Z,92.02
2022-10-10T01:09:33.606Z,92.23
2022-10-10T01:12:11.988Z,91.76
2022-10-10T01:14:48.040Z,91.79
2022-10-10T01:17:22.078Z,92.25
2022-10-10T01:20:34.625Z,94.08
2022-10-10T01:23:25.851Z,96.07
2022-10-10T01:26:05.975Z,97.23
2022-10-10T01:28:44.955Z,96.12
2022-10-10T01:31:15.201Z,94.58
2022-10-10T01:33:52.668Z,93.89
2022-10-10T01:36:27.899Z,93.29
2022-10-10T01:39:03.814Z,93.94
2022-10-10T01:41:34.994Z,94.02
2022-10-10T01:44:04.323Z,94.91
2022-10-10T01:46:34.478Z,94.94
2022-10-10T01:49:03.439Z,95.74
2022-10-10T01:51:48.368Z,96.31
2022-10-10T01:54:34.467Z,96.53
2022-10-10T01:57:18.151Z,97.24
2022-10-10T02:00:03.348Z,97.58
2022-10-10T02:02:41.255Z,97.34
2022-10-10T02:05:17.279Z,97.02
2022-10-10T02:07:50.885Z,96.66
2022-10-10T02:10:23.441Z,96.62
2022-10-10T02:12:53.503Z,96.24
2022-10-10T02:15:26.699Z,95.52
2022-10-10T02:17:57.249Z,95.63
2022-10-10T02:20:29.508Z,95.45
2022-10-10T02:22:57.983Z,95.92
2022-10-10T02:25:30.583Z,96.30
2022-10-10T02:28:09.554Z,96.92
2022-10-10T02:30:43.715Z,97.21
2022-10-10T02:33:17.052Z,97.30
2022-10-10T02:35:49.502Z,97.86
2022-10-10T02:38:23.866Z,97.74
2022-10-10T02:40:52.564Z,97.95
2022-10-10T02:43:21.253Z,97.64
2022-10-10T02:45:51.186Z,97.59
2022-10-10T02:48:20.005Z,97.39
2022-10-10T02:50:48.317Z,98.11
2022-10-10T02:53:16.322Z,98.48
2022-10-10T02:55:45.979Z,98.65
2022-10-10T02:58:14.638Z,99.28
2022-10-10T03:00:42.690Z,99.46
2022-10-10T03:03:12.195Z,99.08
2022-10-10T03:05:42.017Z,99.07
2022-10-10T03:08:11.871Z,98.63
2022-10-10T03:10:40.168Z,97.49
2022-10-10T03:13:09.429Z,97.98
2022-10-10T03:15:37.439Z,98.06
2022-10-10T03:18:06.407Z,98.17
2022-10-10T03:20:36.220Z,98.89
2022-10-10T03:23:04.463Z,98.06
2022-10-10T03:25:34.929Z,97.89
2022-10-10T03:28:02.998Z,99.53
2022-10-10T03:30:31.336Z,100.00
2022-10-10T03:32:59.424Z,100.00
2022-10-10T03:35:31.431Z,100.00
2022-10-10T03:38:01.292Z,99.39
2022-10-10T03:40:30.542Z,98.62
2022-10-10T03:43:01.545Z,97.74
2022-10-10T03:45:29.474Z,98.19
2022-10-10T03:47:59.029Z,100.00
2022-10-10T03:50:28.298Z,100.00
2022-10-10T03:52:56.540Z,99.49
2022-10-10T03:55:25.911Z,98.73
2022-10-10T03:57:54.064Z,98.48
2022-10-10T04:00:22.181Z,98.62
2022-10-10T04:02:50.380Z,98.58
2022-10-10T04:05:18.852Z,98.63
2022-10-10T04:07:46.858Z,98.55
2022-10-10T04:10:16.358Z,98.20
2022-10-10T04:12:45.531Z,98.14
2022-10-10T04:15:13.468Z,98.04
2022-10-10T04:17:41.249Z,98.25
2022-10-10T04:20:10.180Z,98.51
2022-10-10T04:22:39.780Z,98.27
2022-10-10T04:25:08.318Z,97.92
2022-10-10T04:27:36.339Z,97.89
2022-10-10T04:30:07.099Z,97.89
2022-10-10T04:32:35.056Z,97.91
2022-10-10T04:35:03.904Z,97.58
2022-10-10T04:37:31.971Z,97.47
2022-10-10T04:39:59.812Z,97.01
2022-10-10T04:42:28.242Z,97.17
2022-10-10T04:44:56.174Z,97.67
2022-10-10T04:47:25.651Z,97.87
2022-10-10T04:49:53.438Z,98.46
2022-10-10T04:52:21.422Z,98.83
2022-10-10T04:54:49.361Z,100.00
2022-10-10T04:57:17.315Z,100.00
2022-10-10T04:59:45.237Z,100.00
2022-10-10T05:02:12.985Z,100.00
2022-10-10T05:04:42.395Z,100.00
2022-10-10T05:07:10.207Z,100.00
2022-10-10T05:09:38.354Z,100.00
2022-10-10T05:12:06.990Z,100.00
2022-10-10T05:14:34.881Z,100.00
2022-10-10T05:17:02.748Z,100.00
2022-10-10T05:19:30.718Z,100.00
2022-10-10T05:21:59.971Z,100.00
2022-10-10T05:24:28.483Z,100.00
2022-10-10T05:27:05.570Z,100.00
2022-10-10T05:29:33.433Z,100.00
2022-10-10T05:32:01.382Z,100.00
2022-10-10T05:34:29.429Z,100.00
2022-10-10T05:36:58.259Z,100.00
2022-10-10T05:39:27.695Z,100.00
2022-10-10T05:41:55.794Z,100.00
2022-10-10T05:44:23.898Z,100.00
2022-10-10T05:46:51.763Z,100.00
2022-10-10T05:49:19.713Z,99.30
2022-10-10T05:51:47.615Z,98.46
2022-10-10T05:54:15.534Z,98.21
2022-10-10T05:56:44.764Z,98.07
2022-10-10T05:59:13.722Z,98.20
2022-10-10T06:01:41.734Z,98.75
2022-10-10T06:04:10.196Z,99.59
2022-10-10T06:06:38.349Z,99.50
2022-10-10T06:09:06.315Z,99.10
2022-10-10T06:11:34.263Z,99.04
2022-10-10T06:14:03.502Z,98.49
2022-10-10T06:16:31.761Z,97.96
2022-10-10T06:18:59.735Z,97.46
2022-10-10T06:21:28.143Z,97.00
2022-10-10T06:23:56.395Z,97.45
2022-10-10T06:26:24.315Z,98.01
2022-10-10T06:28:52.194Z,98.04
2022-10-10T06:31:21.436Z,97.48
2022-10-10T06:33:49.527Z,97.62
2022-10-10T06:36:18.146Z,97.57
2022-10-10T06:38:46.754Z,97.51
2022-10-10T06:41:15.397Z,95.62
2022-10-10T06:43:43.226Z,95.35
2022-10-10T06:46:11.882Z,94.25
2022-10-10T06:48:41.120Z,92.39
2022-10-10T06:51:14.661Z,92.60
2022-10-10T06:53:42.812Z,83.33
2022-10-10T06:56:17.422Z,80.72
2022-10-10T06:58:45.857Z,81.91
2022-10-10T07:01:13.787Z,80.99
2022-10-10T07:03:44.520Z,80.55
2022-10-10T07:06:13.006Z,80.29
2022-10-10T07:08:41.805Z,79.88
2022-10-10T07:11:10.699Z,76.82
2022-10-10T07:13:39.260Z,71.43
2022-10-10T07:16:07.845Z,69.17
2022-10-10T07:18:36.907Z,66.62
2022-10-10T07:21:07.015Z,65.14
2022-10-10T07:23:36.588Z,64.27
2022-10-10T07:26:07.713Z,63.31
2022-10-10T07:28:35.848Z,63.85
2022-10-10T07:31:06.261Z,68.33
2022-10-10T07:33:36.053Z,71.26
2022-10-10T07:36:04.027Z,70.93
2022-10-10T07:38:33.544Z,71.85
2022-10-10T07:41:02.328Z,77.17
2022-10-10T07:43:30.242Z,77.80
2022-10-10T07:45:58.185Z,76.40
2022-10-10T07:48:25.984Z,72.33
2022-10-10T07:50:54.096Z,71.73
2022-10-10T07:53:21.916Z,69.73
2022-10-10T07:55:51.298Z,68.64
2022-10-10T07:58:19.258Z,67.95
2022-10-10T08:00:47.223Z,67.75
2022-10-10T08:03:15.192Z,67.62
2022-10-10T08:05:44.308Z,65.52
2022-10-10T08:08:12.530Z,62.44
2022-10-10T08:10:58.152Z,57.62
2022-10-10T08:13:43.661Z,55.91
2022-10-10T08:16:11.956Z,53.17
2022-10-10T08:18:39.953Z,50.96
2022-10-10T08:21:09.638Z,49.59
2022-10-10T08:23:38.831Z,50.73
2022-10-10T08:26:10.066Z,51.11
2022-10-10T08:28:39.954Z,52.29
2022-10-10T08:31:10.311Z,52.00
2022-10-10T08:33:39.222Z,51.79
2022-10-10T08:36:08.203Z,51.07
2022-10-10T08:38:37.742Z,50.63
2022-10-10T08:41:11.479Z,49.55
2022-10-10T08:43:45.969Z,47.75
2022-10-10T08:46:19.851Z,47.82
2022-10-10T08:48:51.222Z,51.00
2022-10-10T08:51:26.868Z,49.48
2022-10-10T08:53:57.788Z,50.36
2022-10-10T08:56:32.854Z,50.62
2022-10-10T08:59:05.998Z,57.19
2022-10-10T09:02:18.697Z,58.38
2022-10-10T09:04:25.492Z,54.90
2022-10-10T09:07:06.016Z,57.70
2022-10-10T09:09:42.538Z,53.53
2022-10-10T09:12:22.576Z,52.13
2022-10-10T09:15:01.309Z,53.47
2022-10-10T09:17:52.856Z,51.35
2022-10-10T09:20:37.652Z,48.83
2022-10-10T09:23:15.135Z,46.75
2022-10-10T09:25:48.532Z,43.85
2022-10-10T09:30:57.196Z,41.08
2022-10-10T09:33:30.115Z,39.36
2022-10-10T09:36:00.273Z,38.71
2022-10-10T09:38:36.926Z,39.09
2022-10-10T09:41:09.990Z,38.74
2022-10-10T09:43:45.555Z,41.92
2022-10-10T09:46:13.312Z,43.08
2022-10-10T09:48:43.039Z,44.49
2022-10-10T09:51:15.878Z,45.53
2022-10-10T09:53:45.019Z,46.84
2022-10-10T09:56:18.668Z,45.87
2022-10-10T09:58:49.888Z,44.57
2022-10-10T10:01:20.338Z,44.99
2022-10-10T10:04:23.505Z,43.36
2022-10-10T10:07:20.365Z,44.84
2022-10-10T10:09:50.370Z,44.00
2022-10-10T10:12:22.778Z,42.22
2022-10-10T10:14:54.719Z,40.90
2022-10-10T10:17:24.725Z,37.82
2022-10-10T10:19:52.603Z,37.34
2022-10-10T10:22:39.466Z,34.76
2022-10-10T10:25:31.535Z,33.64
2022-10-10T10:28:18.109Z,30.92
2022-10-10T10:30:47.973Z,36.95
2022-10-10T10:33:29.118Z,39.50
2022-10-10T10:36:08.783Z,36.81
2022-10-10T10:38:45.752Z,33.64
2022-10-10T10:41:24.311Z,31.92
2022-10-10T10:44:17.817Z,29.72
2022-10-10T10:46:59.665Z,30.20
2022-10-10T10:49:35.998Z,30.25
2022-10-10T10:52:35.302Z,30.77
2022-10-10T10:55:16.701Z,31.92
2022-10-10T10:58:37.246Z,33.81
2022-10-10T11:01:23.568Z,32.55
2022-10-10T11:05:17.481Z,37.19
2022-10-10T11:07:18.376Z,36.80
2022-10-10T11:09:55.782Z,34.61
2022-10-10T11:12:38.895Z,33.07
2022-10-10T11:15:15.770Z,29.73
2022-10-10T11:17:48.076Z,29.61
2022-10-10T11:20:24.666Z,30.63
2022-10-10T11:23:06.550Z,31.06
2022-10-10T11:25:46.484Z,29.14
2022-10-10T11:28:19.806Z,27.28
2022-10-10T11:30:52.579Z,26.80
2022-10-10T11:36:16.574Z,25.71
2022-10-10T11:38:49.967Z,24.65
2022-10-10T11:41:24.236Z,27.83
2022-10-10T11:43:58.413Z,30.21
2022-10-10T11:49:02.441Z,26.96
2022-10-10T11:51:45.259Z,29.07
2022-10-10T11:54:27.178Z,27.82
2022-10-10T11:57:01.371Z,27.73
2022-10-10T11:59:34.210Z,28.25
2022-10-10T12:02:11.572Z,28.88
2022-10-10T12:04:39.802Z,28.31
2022-10-10T12:07:16.562Z,29.63
2022-10-10T12:09:48.081Z,33.71
2022-10-10T12:12:22.842Z,31.21
2022-10-10T12:14:55.750Z,28.75
2022-10-10T12:17:29.881Z,34.30
2022-10-10T12:20:10.283Z,34.91
2022-10-10T12:22:40.029Z,34.09
2022-10-10T12:25:27.045Z,30.40
2022-10-10T12:28:07.521Z,36.43
2022-10-10T12:30:35.852Z,43.03
2022-10-10T12:33:04.067Z,36.68
2022-10-10T12:35:55.555Z,31.49
2022-10-10T12:38:27.767Z,27.70
2022-10-10T12:41:14.345Z,37.39
2022-10-10T12:43:46.147Z,36.77
2022-10-10T12:46:29.350Z,35.19
2022-10-10T12:49:14.223Z,30.74
2022-10-10T12:51:44.010Z,30.21
2022-10-10T12:54:25.118Z,33.27
2022-10-10T12:57:01.594Z,30.00
2022-10-10T12:59:30.143Z,29.69
2022-10-10T13:02:03.722Z,37.77
2022-10-10T13:04:32.273Z,36.88
2022-10-10T13:07:03.101Z,38.71
2022-10-10T13:09:36.266Z,36.74
2022-10-10T13:12:07.159Z,41.92
2022-10-10T13:14:40.689Z,38.20
2022-10-10T13:17:23.867Z,31.35
2022-10-10T13:19:52.994Z,30.39
2022-10-10T13:22:21.967Z,37.29
2022-10-10T13:24:53.266Z,38.63
2022-10-10T13:27:24.784Z,37.71
2022-10-10T13:29:54.630Z,35.75
2022-10-10T13:32:26.850Z,30.97
2022-10-10T13:34:58.133Z,27.76
2022-10-10T13:37:27.176Z,32.71
2022-10-10T13:39:56.825Z,33.28
2022-10-10T13:42:31.129Z,36.91
2022-10-10T13:45:00.485Z,37.42
2022-10-10T13:47:54.636Z,34.87
2022-10-10T13:50:27.640Z,31.78
2022-10-10T13:53:33.256Z,28.75
2022-10-10T13:56:07.188Z,26.51
2022-10-10T13:58:43.030Z,25.27
2022-10-10T14:01:33.270Z,26.36
2022-10-10T14:04:06.737Z,25.65
2022-10-10T14:06:36.129Z,24.87
2022-10-10T14:09:10.964Z,24.67
2022-10-10T14:11:42.091Z,27.61
2022-10-10T14:14:17.683Z,34.61
2022-10-10T14:16:45.639Z,37.46
2022-10-10T14:19:19.317Z,36.23
2022-10-10T14:21:47.396Z,34.50
2022-10-10T14:24:16.207Z,34.26
2022-10-10T14:26:45.528Z,34.66
2022-10-10T14:29:15.597Z,33.69
2022-10-10T14:31:44.255Z,34.53
2022-10-10T14:34:12.605Z,36.65
2022-10-10T14:36:45.259Z,38.47
2022-10-10T14:39:15.118Z,40.23
2022-10-10T14:41:43.442Z,41.99
2022-10-10T14:44:13.379Z,43.07
2022-10-10T14:46:42.022Z,43.70
2022-10-10T14:49:18.529Z,44.01
2022-10-10T14:51:47.166Z,43.58
2022-10-10T14:54:15.751Z,42.58
2022-10-10T14:57:06.458Z,39.91
2022-10-10T14:59:49.448Z,39.37
2022-10-10T15:02:20.157Z,39.45
2022-10-10T15:04:48.211Z,39.29
2022-10-10T15:07:16.915Z,37.55
2022-10-10T15:12:45.320Z,40.35
2022-10-10T15:15:16.093Z,40.94
2022-10-10T15:17:44.411Z,38.51
2022-10-10T15:20:14.242Z,36.65
2022-10-10T15:22:43.057Z,36.70
2022-10-10T15:25:11.479Z,37.84
2022-10-10T15:27:39.832Z,37.51
2022-10-10T15:30:08.823Z,38.62
2022-10-10T15:32:40.928Z,39.33
2022-10-10T15:35:12.347Z,40.35
2022-10-10T15:37:40.465Z,40.10
2022-10-10T15:40:09.227Z,39.37
2022-10-10T15:42:37.047Z,38.53
2022-10-10T15:45:07.378Z,37.82
2022-10-10T15:47:36.423Z,37.23
2022-10-10T15:50:11.073Z,38.34
2022-10-10T15:52:40.236Z,39.10
2022-10-10T15:55:09.283Z,39.05
2022-10-10T15:57:37.678Z,39.40
2022-10-10T16:00:08.851Z,41.58
2022-10-10T16:02:40.323Z,42.42
2022-10-10T16:05:10.929Z,44.20
2022-10-10T16:07:46.959Z,45.09
2022-10-10T16:10:16.176Z,46.20
2022-10-10T16:12:44.362Z,47.32
2022-10-10T16:15:12.607Z,48.70
2022-10-10T16:17:40.529Z,49.42
2022-10-10T16:20:11.266Z,50.51
2022-10-10T16:22:39.198Z,51.52
2022-10-10T16:25:21.751Z,53.34
2022-10-10T16:27:50.767Z,54.86
2022-10-10T16:30:20.038Z,55.80
2022-10-10T16:32:48.687Z,56.76
2022-10-10T16:35:18.728Z,58.75
2022-10-10T16:37:49.493Z,60.69
2022-10-10T16:40:17.723Z,61.71
2022-10-10T16:42:45.865Z,62.16
2022-10-10T16:45:13.886Z,63.79
2022-10-10T16:47:42.953Z,64.68
2022-10-10T16:50:11.461Z,66.41
2022-10-10T16:52:40.684Z,65.63
2022-10-10T16:55:11.287Z,67.00
2022-10-10T16:57:40.033Z,67.38
2022-10-10T17:00:10.215Z,68.17
2022-10-10T17:02:42.053Z,68.26
2022-10-10T17:05:11.001Z,69.45
2022-10-10T17:07:40.507Z,70.06
2022-10-10T17:10:09.351Z,70.04
2022-10-10T17:12:37.255Z,70.68
2022-10-10T17:15:06.686Z,71.88
2022-10-10T17:17:37.077Z,73.47
2022-10-10T17:20:08.832Z,74.76
2022-10-10T17:22:38.142Z,75.30
2022-10-10T17:25:34.213Z,75.46
2022-10-10T17:28:03.610Z,75.50
2022-10-10T17:30:31.402Z,77.35
2022-10-10T17:32:59.938Z,77.88
2022-10-10T17:35:28.192Z,79.67
2022-10-10T17:38:04.450Z,79.33
2022-10-10T17:40:44.883Z,77.39
2022-10-10T17:43:14.357Z,75.21
2022-10-10T17:45:42.531Z,74.87
2022-10-10T17:48:10.498Z,79.34
2022-10-10T17:50:40.168Z,84.50
2022-10-10T17:53:10.541Z,87.64
2022-10-10T17:55:42.824Z,93.15
2022-10-10T17:58:10.822Z,95.33
2022-10-10T18:00:43.367Z,97.29
2022-10-10T18:03:12.372Z,99.58
2022-10-10T18:05:40.853Z,100.00
2022-10-10T18:08:09.765Z,100.00
2022-10-10T18:10:41.303Z,100.00
2022-10-10T18:13:10.349Z,100.00
2022-10-10T18:15:38.340Z,100.00
2022-10-10T18:18:08.116Z,100.00
2022-10-10T18:20:37.784Z,100.00
2022-10-10T18:23:06.163Z,100.00
2022-10-10T18:25:34.784Z,100.00
2022-10-10T20:17:54.361Z,100.00
2022-10-10T20:20:22.750Z,100.00
2022-10-10T20:22:50.822Z,100.00
2022-10-10T20:25:19.368Z,100.00
2022-10-10T21:40:42.398Z,100.00
2022-10-10T21:44:48.019Z,100.00
2022-10-10T23:42:12.522Z,100.00
